Terminal Aerodrome Forecast
Issued by NWS

Home | Current Version | Previous Version | Text Only | Print | Product List | Glossary On
Versions: 1 2 3 4 5 6 7 8 9 10 11 12 13 14 15 16 17 18 19 20 21 22 23 24 25 26 27 28
000
FTUS43 KBIS 191726
TAFMOT
TAF
KMOT 191726Z 1918/2018 27014KT P6SM BKN200
     FM192300 27016G25KT P6SM SCT250
     FM201000 29014G22KT P6SM BKN015
     FM201700 30006KT P6SM SCT004=

USA.gov is the U.S. government's official web portal to all federal, state and local government web resources and services.